• Join FlightAware (Why Join?)
  • Login
  • US Flag 
12:53PM EDT


 

Airport Tracker/Info


-or-


 

Live Flight TrackerFlight Track Log ✈ N762NC ✈ 23-Aug-2013 ✈ KMCI - KDTW

Flight Track Log - Related Links

Times and Time Zones

All times are in EDT time to prevent confusion due to time zone crossing. See the N762NC flight status page for this flight to view local times or setup timezone preferences in your user account.

Time Position Orientation Groundspeed Altitude Reporting Facility
EDT Latitude Longitude Course Direction KTS MPH feet Rate Location/Type
06:51PM 39.2667 -94.7167 45° Northeast 163 188 1,900  Level Kansas City TRACON
06:52PM 39.2000 -94.7333 191° South 230 265 3,600 1,380 Climbing Kansas City TRACON
06:53PM 39.1758 -94.7303 174° South 228 262 4,300 1,800 Climbing Kansas City Center
06:54PM 39.1550 -94.6489 108° East 267 307 6,400 2,220 Climbing Kansas City Center
06:55PM 39.5853 -94.3548 45° Northeast  Level FlightAware Approximate
06:55PM 39.2094 -94.5717 48° Northeast 286 329 8,900  Level Kansas City Center
06:56PM 39.6647 -94.2525 45° Northeast  Level FlightAware Approximate
06:56PM 39.2847 -94.5364 20° North 300 345 10,600  Level Kansas City Center
06:57PM 39.3831 -94.4800 24° Northeast 348 400 12,500 1,920 Climbing Kansas City Center
06:58PM 39.4678 -94.4267 26° Northeast 355 409 14,700 2,100 Climbing Kansas City Center
06:59PM 39.5714 -94.3722 22° Northeast 359 413 16,900 1,680 Climbing Kansas City Center
07:00PM 39.6611 -94.3169 25° Northeast 372 428 18,200 1,500 Climbing Kansas City Center
07:01PM 39.7719 -94.2592 22° Northeast 383 441 20,000 1,440 Climbing Kansas City Center
07:02PM 39.8650 -94.2019 25° Northeast 386 444 21,200 1,200 Climbing Kansas City Center
07:03PM 39.9053 -94.0669 69° East 400 460 22,600 1,080 Climbing Kansas City Center
07:04PM 39.9478 -93.9261 68° East 408 470 23,500 780 Climbing Kansas City Center
07:05PM 39.9958 -93.7969 64° Northeast 409 471 24,300 1,020 Climbing Kansas City Center
07:06PM 40.0564 -93.6333 64° Northeast 418 481 25,600 960 Climbing Kansas City Center
07:07PM 40.1108 -93.4983 62° Northeast 422 486 26,400 720 Climbing Kansas City Center
07:08PM 40.1608 -93.3533 66° East 435 501 27,100 660 Climbing Kansas City Center
07:09PM 40.2158 -93.2117 63° Northeast 439 505 27,800 600 Climbing Kansas City Center
07:10PM 40.2694 -93.0672 64° Northeast 443 510 28,400 720 Climbing Kansas City Center
07:11PM 40.3289 -92.9000 65° Northeast 450 518 29,300 900 Climbing Kansas City Center
07:12PM 40.3947 -92.7361 62° Northeast 454 522 30,300 780 Climbing Kansas City Center
07:14PM 40.4472 -92.5831 66° East 458 527 31,000 780 Climbing Kansas City Center
07:15PM 40.4961 -92.4308 67° East 456 525 32,000 840 Climbing Kansas City Center
07:15PM 40.5406 -92.3169 63° Northeast 449 517 32,600 720 Climbing Chicago Center
07:16PM 40.5950 -92.1731 63° Northeast 443 510 33,400 780 Climbing Chicago Center
07:17PM 40.6467 -92.0286 65° Northeast 441 507 34,300 720 Climbing Chicago Center
07:18PM 40.6997 -91.8869 64° Northeast 437 503 34,900 300 Climbing Chicago Center
07:19PM 40.7597 -91.7125 66° East 438 504 35,000  Climbing Chicago Center
07:20PM 40.8164 -91.5675 63° Northeast 445 512 35,000  Level Chicago Center
07:22PM 40.8661 -91.4175 66° East 450 518 35,000  Level Chicago Center
07:23PM 40.9239 -91.2619 64° Northeast 449 517 35,000  Level Chicago Center
07:24PM 40.9664 -91.1047 70° East 454 522 35,000  Level Chicago Center
07:25PM 41.0097 -90.9500 70° East 449 517 35,000  Level Chicago Center
07:26PM 41.0519 -90.7947 70° East 446 513 35,000  Level Chicago Center
07:27PM 41.1033 -90.6089 70° East 447 514 35,000  Level Chicago Center
07:28PM 41.1392 -90.4494 73° East 448 516 35,000  Level Chicago Center
07:29PM 41.1775 -90.2925 72° East 446 513 35,000  Level Chicago Center
07:30PM 41.2111 -90.1336 74° East 446 513 35,000  Level Chicago Center
07:31PM 41.2397 -89.9731 77° East 445 512 35,000  Level Chicago Center
07:32PM 41.2575 -89.8067 82° East 450 518 35,000  Level Chicago Center
07:33PM 41.2786 -89.6408 80° East 452 520 35,000  Level Chicago Center
07:34PM 41.3056 -89.4414 80° East 455 524 35,000  Level Chicago Center
07:35PM 41.3300 -89.2758 79° East 454 522 35,000  Level Chicago Center
07:36PM 41.3589 -89.1283 75° East 447 514 35,000  Level Chicago Center
07:37PM 41.4006 -88.9753 70° East 443 510 35,000  Level Chicago Center
07:38PM 41.4461 -88.7892 72° East 443 510 35,000  Level Chicago Center
07:39PM 41.4867 -88.6350 71° East 441 507 35,000 -240 Level Chicago Center
07:40PM 41.5256 -88.4803 71° East 441 507 34,600 -660 Descending Chicago Center
07:41PM 41.5508 -88.3181 78° East 453 521 33,700 -780 Descending Chicago Center
07:42PM 41.5583 -88.1436 87° East 464 534 33,000 -360 Descending Chicago Center
07:43PM 41.5839 -87.9725 79° East 462 532 33,000  Level Chicago Center
07:44PM 41.6072 -87.8044 79° East 459 528 33,000  Level Chicago Center
07:45PM 41.6358 -87.6072 79° East 451 519 33,000  Level Chicago Center
07:46PM 41.6558 -87.4419 81° East 452 520 33,000  Level Chicago Center
07:47PM 41.6764 -87.2786 80° East 449 517 33,000  Level Chicago Center
07:48PM 41.6967 -87.1156 80° East 447 514 33,000  Level Chicago Center
07:49PM 41.7092 -86.9519 84° East 445 512 33,000 -300 Level Chicago Center
07:51PM 41.7253 -86.7569 84° East 443 510 32,400 -780 Descending Chicago Center
07:52PM 41.7350 -86.5836 86° East 451 519 31,400 -1,020 Descending Chicago Center
07:53PM 41.7578 -86.4172 80° East 454 522 30,400 -1,020 Descending Chicago Center
07:54PM 41.7825 -86.2492 79° East 458 527 29,400 -900 Descending Chicago Center
07:55PM 41.8100 -86.0828 77° East 458 527 28,600 -840 Descending Chicago Center
07:56PM 41.8361 -85.9147 78° East 459 528 27,700 -840 Descending Chicago Center
07:57PM 41.8742 -85.7581 72° East 443 510 26,900 -1,260 Descending Chicago Center
07:58PM 41.9094 -85.6025 73° East 434 499 25,100 -2,520 Descending Chicago Center
07:59PM 41.9492 -85.4236 73° East 417 480 21,700 -2,820 Descending Chicago Center
08:00PM 41.9825 -85.2811 72° East 403 464 19,300 -1,260 Descending Chicago Center
08:01PM 42.0011 -85.1519 79° East 402 463 19,100 -180 Descending Chicago Center
08:02PM 42.0208 -84.9794 81° East 395 455 19,000 -60 Descending Chicago Center
08:03PM 42.0414 -84.8403 79° East 386 444 19,000  Level Chicago Center
08:04PM 42.0164 -84.7011 104° East 405 466 19,000  Level Chicago Center
08:05PM 41.9553 -84.5783 124° Southeast 412 474 19,000 -1,020 Level Chicago Center
08:06PM 41.8825 -84.4200 122° Southeast 414 476 17,000 -2,100 Descending Chicago Center
08:07PM 41.8417 -84.2850 112° Southeast 407 468 14,700 -2,040 Descending Cleveland Center
08:08PM 41.8017 -84.1683 115° Southeast 393 452 12,900 -1,380 Descending Cleveland Center
08:09PM 41.8136 -84.0492 82° East 357 411 12,000 -900 Descending Cleveland Center
08:10PM 41.8786 -83.9689 43° Northeast 286 329 11,200 -1,200 Descending Cleveland Center
08:11PM 41.9169 -83.8733 62° Northeast 286 329 9,700 -1,620 Descending Cleveland Center
08:12PM 41.9406 -83.7711 73° East 281 323 8,000 -1,380 Descending Cleveland Center
08:13PM 41.9622 -83.6689 74° East 276 318 7,000 -1,140 Descending Cleveland Center
08:14PM 41.9803 -83.6139 66° East 261 300 6,300 -1,200 Descending Cleveland Center
08:14PM 41.9917 -83.5811 65° Northeast 276 318 5,800 -1,620 Descending Cleveland Center
08:15PM 42.0158 -83.5289 58° Northeast 259 298 4,700 -1,260 Descending Cleveland Center
08:15PM 42.0489 -83.4578 58° Northeast 217 250 4,000 -900 Descending Cleveland Center
08:17PM 42.1000 -83.4236 26° Northeast 194 223 3,000 -1,140 Descending Cleveland Center
08:18PM 42.1444 -83.3919 28° Northeast 173 199 1,800 -1,080 Descending Cleveland Center
08:19PM 42.1806 -83.3628 31° Northeast 142 163 900 -900 Descending Cleveland Center